createdAt,value
2022-10-18T00:00:52.868Z,14.50
2022-10-18T00:03:20.852Z,14.50
2022-10-18T00:05:49.014Z,14.50
2022-10-18T00:08:21.145Z,14.50
2022-10-18T00:10:49.670Z,14.40
2022-10-18T00:13:17.865Z,14.40
2022-10-18T00:15:49.390Z,14.40
2022-10-18T00:18:17.500Z,14.40
2022-10-18T00:20:45.437Z,14.40
2022-10-18T00:23:13.547Z,14.40
2022-10-18T00:25:42.824Z,14.40
2022-10-18T00:28:10.940Z,14.40
2022-10-18T00:30:38.956Z,14.40
2022-10-18T00:33:07.135Z,14.40
2022-10-18T00:35:35.370Z,14.40
2022-10-18T00:38:03.406Z,14.40
2022-10-18T00:40:31.484Z,14.30
2022-10-18T00:43:00.747Z,14.30
2022-10-18T00:45:28.724Z,14.30
2022-10-18T00:47:57.944Z,14.30
2022-10-18T00:50:26.201Z,14.30
2022-10-18T00:52:58.272Z,14.30
2022-10-18T00:55:26.332Z,14.20
2022-10-18T01:00:29.016Z,14.20
2022-10-18T01:02:57.117Z,14.30
2022-10-18T01:05:25.288Z,14.20
2022-10-18T01:08:02.468Z,14.20
2022-10-18T01:10:32.895Z,14.20
2022-10-18T01:13:07.129Z,14.20
2022-10-18T01:15:48.646Z,14.20
2022-10-18T01:18:19.340Z,14.20
2022-10-18T01:20:59.905Z,14.20
2022-10-18T01:23:34.459Z,14.20
2022-10-18T01:26:04.741Z,14.20
2022-10-18T01:28:39.471Z,14.20
2022-10-18T01:31:13.110Z,14.20
2022-10-18T01:33:43.556Z,14.10
2022-10-18T01:36:15.411Z,14.10
2022-10-18T01:38:44.141Z,14.10
2022-10-18T01:41:15.608Z,14.10
2022-10-18T01:43:44.654Z,14.10
2022-10-18T01:46:14.521Z,14.10
2022-10-18T01:48:42.554Z,14.10
2022-10-18T01:51:10.818Z,14.10
2022-10-18T01:53:38.697Z,14.10
2022-10-18T01:56:25.325Z,14.10
2022-10-18T01:58:56.593Z,14.10
2022-10-18T02:01:30.446Z,14.10
2022-10-18T02:04:01.917Z,14.00
2022-10-18T02:06:31.421Z,14.00
2022-10-18T02:09:01.867Z,14.00
2022-10-18T02:11:30.822Z,14.00
2022-10-18T02:14:01.305Z,14.00
2022-10-18T02:16:32.986Z,14.00
2022-10-18T02:19:03.195Z,14.00
2022-10-18T02:21:31.627Z,14.00
2022-10-18T02:24:00.458Z,14.00
2022-10-18T02:26:28.548Z,14.00
2022-10-18T02:28:56.551Z,14.00
2022-10-18T02:31:27.310Z,14.00
2022-10-18T02:33:57.832Z,13.90
2022-10-18T02:36:28.276Z,14.00
2022-10-18T02:38:57.992Z,14.00
2022-10-18T02:41:26.905Z,14.00
2022-10-18T02:43:54.923Z,13.90
2022-10-18T02:46:22.909Z,14.00
2022-10-18T02:48:50.965Z,14.00
2022-10-18T02:51:20.565Z,14.00
2022-10-18T02:53:48.510Z,14.00
2022-10-18T02:56:16.610Z,14.00
2022-10-18T02:58:44.495Z,13.90
2022-10-18T03:01:12.668Z,13.90
2022-10-18T03:03:40.618Z,13.90
2022-10-18T03:06:08.745Z,13.80
2022-10-18T03:08:40.584Z,13.80
2022-10-18T03:11:08.676Z,13.80
2022-10-18T03:13:36.722Z,13.80
2022-10-18T03:16:04.728Z,13.80
2022-10-18T03:18:32.587Z,13.80
2022-10-18T03:21:00.476Z,13.80
2022-10-18T03:23:28.369Z,13.80
2022-10-18T03:25:57.664Z,13.80
2022-10-18T03:28:25.699Z,13.80
2022-10-18T03:30:53.664Z,13.80
2022-10-18T03:33:21.784Z,13.70
2022-10-18T03:35:49.778Z,13.70
2022-10-18T03:38:17.721Z,13.70
2022-10-18T03:40:45.589Z,13.70
2022-10-18T03:43:14.872Z,13.70
2022-10-18T03:45:42.740Z,13.70
2022-10-18T03:48:11.043Z,13.60
2022-10-18T03:50:39.000Z,13.60
2022-10-18T03:53:07.029Z,13.60
2022-10-18T03:55:34.937Z,13.60
2022-10-18T03:58:02.828Z,13.60
2022-10-18T04:00:32.106Z,13.50
2022-10-18T04:03:00.143Z,13.50
2022-10-18T04:05:30.817Z,13.50
2022-10-18T04:07:58.733Z,13.50
2022-10-18T04:10:26.685Z,13.50
2022-10-18T04:12:54.692Z,13.50
2022-10-18T04:15:22.566Z,13.50
2022-10-18T04:17:51.998Z,13.40
2022-10-18T04:20:19.974Z,13.40
2022-10-18T04:22:49.157Z,13.40
2022-10-18T04:25:17.567Z,13.40
2022-10-18T04:27:45.532Z,13.40
2022-10-18T04:30:13.547Z,13.40
2022-10-18T04:32:41.621Z,13.40
2022-10-18T04:35:11.278Z,13.40
2022-10-18T04:37:39.300Z,13.40
2022-10-18T04:40:10.714Z,14.30
2022-10-18T04:42:38.638Z,13.30
2022-10-18T04:45:07.124Z,13.30
2022-10-18T04:47:35.233Z,13.40
2022-10-18T04:50:04.972Z,13.30
2022-10-18T04:52:34.291Z,13.30
2022-10-18T04:55:02.149Z,13.30
2022-10-18T04:57:30.329Z,13.30
2022-10-18T04:59:58.422Z,13.30
2022-10-18T05:02:26.289Z,13.30
2022-10-18T05:04:54.347Z,13.20
2022-10-18T05:07:22.223Z,13.20
2022-10-18T05:09:51.420Z,13.20
2022-10-18T05:12:19.325Z,13.20
2022-10-18T05:14:47.285Z,13.20
2022-10-18T05:17:15.364Z,13.20
2022-10-18T05:19:43.323Z,13.20
2022-10-18T05:22:11.302Z,13.20
2022-10-18T05:24:39.250Z,13.20
2022-10-18T05:27:10.249Z,13.20
2022-10-18T05:29:38.531Z,13.10
2022-10-18T05:32:06.631Z,13.10
2022-10-18T05:34:34.608Z,13.10
2022-10-18T05:37:02.658Z,13.00
2022-10-18T05:39:30.724Z,13.00
2022-10-18T05:41:59.916Z,13.00
2022-10-18T05:44:29.246Z,13.00
2022-10-18T05:46:57.204Z,13.00
2022-10-18T05:49:25.197Z,13.00
2022-10-18T05:51:53.576Z,13.00
2022-10-18T05:54:22.022Z,13.00
2022-10-18T05:56:49.943Z,13.00
2022-10-18T05:59:18.000Z,13.00
2022-10-18T06:01:47.354Z,13.00
2022-10-18T06:04:15.296Z,12.90
2022-10-18T06:06:43.296Z,12.90
2022-10-18T06:09:11.296Z,12.90
2022-10-18T06:11:39.236Z,12.90
2022-10-18T06:14:08.525Z,12.80
2022-10-18T06:19:06.785Z,12.80
2022-10-18T06:21:34.916Z,12.80
2022-10-18T06:24:02.887Z,12.80
2022-10-18T06:26:30.883Z,12.80
2022-10-18T06:28:58.978Z,12.80
2022-10-18T06:31:27.010Z,12.80
2022-10-18T06:33:56.628Z,12.70
2022-10-18T06:36:26.091Z,12.70
2022-10-18T06:38:54.586Z,12.70
2022-10-18T06:41:22.749Z,12.70
2022-10-18T06:43:51.056Z,12.70
2022-10-18T06:46:19.051Z,12.70
2022-10-18T06:48:47.113Z,12.60
2022-10-18T06:51:15.244Z,12.60
2022-10-18T06:53:59.007Z,12.60
2022-10-18T06:56:32.416Z,12.60
2022-10-18T06:59:00.361Z,12.60
2022-10-18T07:01:29.063Z,12.60
2022-10-18T07:03:57.063Z,12.60
2022-10-18T07:06:25.371Z,12.60
2022-10-18T07:08:54.757Z,12.60
2022-10-18T07:11:24.033Z,12.60
2022-10-18T07:13:52.101Z,12.60
2022-10-18T07:16:20.338Z,12.60
2022-10-18T07:18:49.725Z,12.60
2022-10-18T07:21:18.390Z,12.60
2022-10-18T07:23:47.059Z,12.60
2022-10-18T07:26:17.015Z,12.60
2022-10-18T07:28:45.874Z,12.60
2022-10-18T07:31:14.313Z,12.60
2022-10-18T07:33:42.975Z,12.60
2022-10-18T07:36:11.698Z,12.60
2022-10-18T07:38:39.726Z,12.50
2022-10-18T07:41:08.416Z,12.60
2022-10-18T07:43:37.982Z,12.50
2022-10-18T07:46:06.054Z,12.50
2022-10-18T07:48:34.014Z,12.50
2022-10-18T07:51:02.752Z,12.50
2022-10-18T07:53:32.473Z,12.50
2022-10-18T07:56:02.426Z,12.50
2022-10-18T07:58:32.960Z,12.40
2022-10-18T08:01:04.460Z,12.40
2022-10-18T08:03:32.345Z,12.40
2022-10-18T08:06:00.453Z,12.40
2022-10-18T08:08:28.548Z,12.40
2022-10-18T08:10:56.575Z,12.40
2022-10-18T08:13:24.736Z,12.40
2022-10-18T08:15:52.679Z,12.30
2022-10-18T08:18:22.003Z,12.30
2022-10-18T08:20:49.845Z,12.30
2022-10-18T08:23:17.815Z,12.40
2022-10-18T08:25:45.746Z,12.40
2022-10-18T08:28:14.490Z,12.40
2022-10-18T08:30:42.697Z,12.40
2022-10-18T08:33:10.680Z,12.40
2022-10-18T08:35:39.974Z,12.40
2022-10-18T08:38:16.422Z,12.40
2022-10-18T08:40:46.562Z,12.40
2022-10-18T08:43:21.570Z,12.50
2022-10-18T08:45:50.679Z,12.50
2022-10-18T08:48:21.960Z,12.50
2022-10-18T08:50:52.486Z,12.60
2022-10-18T08:53:21.698Z,12.60
2022-10-18T08:55:52.519Z,12.60
2022-10-18T08:58:22.120Z,12.50
2022-10-18T09:00:54.975Z,12.60
2022-10-18T09:03:30.755Z,12.50
2022-10-18T09:06:04.466Z,12.60
2022-10-18T09:08:39.196Z,12.60
2022-10-18T09:11:11.202Z,12.60
2022-10-18T09:13:51.152Z,12.60
2022-10-18T09:16:21.628Z,12.60
2022-10-18T09:18:57.351Z,12.70
2022-10-18T09:21:31.745Z,12.60
2022-10-18T09:24:05.969Z,12.60
2022-10-18T09:26:39.164Z,12.60
2022-10-18T09:29:11.848Z,12.60
2022-10-18T09:31:44.858Z,12.60
2022-10-18T09:34:15.214Z,12.60
2022-10-18T09:36:48.830Z,12.60
2022-10-18T09:39:19.774Z,12.60
2022-10-18T09:41:55.655Z,12.70
2022-10-18T09:44:25.730Z,12.80
2022-10-18T09:47:06.924Z,12.80
2022-10-18T09:49:38.162Z,12.80
2022-10-18T09:52:11.630Z,12.90
2022-10-18T09:54:41.692Z,13.00
2022-10-18T09:57:12.552Z,13.00
2022-10-18T09:59:43.316Z,12.90
2022-10-18T10:02:16.066Z,12.90
2022-10-18T10:04:47.209Z,12.90
2022-10-18T10:07:19.141Z,13.00
2022-10-18T10:09:47.885Z,12.90
2022-10-18T10:12:33.729Z,13.00
2022-10-18T10:15:10.097Z,12.90
2022-10-18T10:17:38.089Z,13.00
2022-10-18T10:20:15.063Z,13.00
2022-10-18T10:22:46.570Z,13.00
2022-10-18T10:25:21.475Z,12.30
2022-10-18T10:27:49.455Z,13.10
2022-10-18T10:30:28.012Z,13.20
2022-10-18T10:32:56.799Z,13.20
2022-10-18T10:35:35.463Z,13.30
2022-10-18T10:38:24.844Z,13.40
2022-10-18T10:40:52.997Z,13.40
2022-10-18T10:43:40.048Z,13.50
2022-10-18T10:46:09.597Z,13.50
2022-10-18T10:48:50.015Z,13.60
2022-10-18T10:51:19.411Z,13.60
2022-10-18T10:53:52.217Z,13.60
2022-10-18T10:56:29.777Z,13.70
2022-10-18T10:58:59.460Z,13.30
2022-10-18T11:01:33.867Z,13.80
2022-10-18T11:04:03.232Z,13.90
2022-10-18T11:06:48.978Z,13.90
2022-10-18T11:09:31.073Z,14.00
2022-10-18T11:12:03.901Z,14.00
2022-10-18T11:14:36.380Z,14.10
2022-10-18T11:17:08.544Z,14.10
2022-10-18T11:19:40.225Z,14.10
2022-10-18T11:22:21.110Z,14.20
2022-10-18T11:24:50.468Z,14.30
2022-10-18T11:27:26.534Z,14.40
2022-10-18T11:30:09.288Z,14.40
2022-10-18T11:32:43.130Z,14.60
2022-10-18T11:35:17.038Z,14.60
2022-10-18T11:37:50.170Z,14.60
2022-10-18T11:40:30.638Z,14.70
2022-10-18T11:43:01.526Z,14.80
2022-10-18T11:45:33.587Z,14.80
2022-10-18T11:48:05.757Z,14.80
2022-10-18T11:50:38.882Z,14.80
2022-10-18T11:53:11.203Z,14.90
2022-10-18T11:55:46.973Z,15.00
2022-10-18T11:58:28.258Z,14.90
2022-10-18T12:00:58.180Z,14.90
2022-10-18T12:03:34.710Z,15.00
2022-10-18T12:06:04.819Z,15.00
2022-10-18T12:08:34.820Z,15.20
2022-10-18T12:11:11.125Z,15.30
2022-10-18T12:13:41.546Z,15.30
2022-10-18T12:16:10.413Z,15.60
2022-10-18T12:18:44.328Z,15.70
2022-10-18T12:21:13.716Z,15.80
2022-10-18T12:23:47.856Z,16.00
2022-10-18T12:26:18.056Z,16.30
2022-10-18T12:28:50.629Z,16.50
2022-10-18T12:31:22.038Z,16.60
2022-10-18T12:33:52.924Z,16.70
2022-10-18T12:36:28.895Z,16.80
2022-10-18T12:38:59.750Z,17.00
2022-10-18T12:41:30.033Z,17.00
2022-10-18T12:44:00.212Z,16.80
2022-10-18T12:46:43.726Z,16.80
2022-10-18T12:49:12.765Z,16.70
2022-10-18T12:51:50.173Z,16.70
2022-10-18T12:54:19.608Z,16.80
2022-10-18T12:56:50.828Z,17.10
2022-10-18T12:59:52.120Z,17.30
2022-10-18T13:02:24.468Z,17.60
2022-10-18T13:04:52.621Z,17.60
2022-10-18T13:07:35.018Z,17.40
2022-10-18T13:10:21.949Z,17.30
2022-10-18T13:12:59.540Z,17.40
2022-10-18T13:15:38.927Z,17.50
2022-10-18T13:18:11.528Z,17.70
2022-10-18T13:20:41.780Z,18.20
2022-10-18T13:25:50.948Z,18.70
2022-10-18T13:28:26.718Z,18.80
2022-10-18T13:30:56.599Z,18.90
2022-10-18T13:33:32.680Z,19.00
2022-10-18T13:36:03.523Z,19.20
2022-10-18T13:38:42.249Z,19.30
2022-10-18T13:41:11.885Z,19.30
2022-10-18T13:44:03.645Z,19.40
2022-10-18T13:46:50.196Z,19.30
2022-10-18T13:49:29.405Z,19.20
2022-10-18T13:52:03.387Z,19.40
2022-10-18T13:54:50.510Z,19.70
2022-10-18T13:57:23.289Z,19.60
2022-10-18T14:00:09.084Z,19.50
2022-10-18T14:03:09.167Z,19.30
2022-10-18T14:05:51.911Z,19.30
2022-10-18T14:08:21.784Z,19.30
2022-10-18T14:11:02.416Z,19.40
2022-10-18T14:13:36.452Z,19.20
2022-10-18T14:16:07.571Z,18.70
2022-10-18T14:18:37.846Z,18.40
2022-10-18T14:21:14.058Z,18.00
2022-10-18T14:23:44.602Z,17.70
2022-10-18T14:26:15.036Z,17.50
2022-10-18T14:29:00.279Z,17.50
2022-10-18T14:31:28.685Z,17.60
2022-10-18T14:33:58.764Z,17.80
2022-10-18T14:36:33.335Z,17.90
2022-10-18T14:39:02.068Z,18.20
2022-10-18T14:41:30.865Z,18.30
2022-10-18T14:44:13.059Z,18.50
2022-10-18T14:46:43.543Z,18.60
2022-10-18T14:49:12.481Z,19.00
2022-10-18T14:51:42.334Z,18.90
2022-10-18T14:54:17.282Z,19.00
2022-10-18T14:56:45.675Z,19.00
2022-10-18T14:59:16.723Z,18.90
2022-10-18T15:01:52.426Z,18.60
2022-10-18T15:04:22.670Z,18.60
2022-10-18T15:06:55.250Z,18.90
2022-10-18T15:09:24.298Z,18.70
2022-10-18T15:11:54.765Z,18.60
2022-10-18T15:14:22.910Z,18.40
2022-10-18T15:16:53.069Z,18.30
2022-10-18T15:19:42.886Z,18.00
2022-10-18T15:22:31.838Z,18.00
2022-10-18T15:25:14.597Z,18.20
2022-10-18T15:27:44.939Z,18.10
2022-10-18T15:30:17.555Z,18.20
2022-10-18T15:32:49.750Z,18.20
2022-10-18T15:35:24.920Z,18.20
2022-10-18T15:37:55.812Z,18.20
2022-10-18T15:40:35.145Z,18.00
2022-10-18T15:43:03.736Z,17.80
2022-10-18T15:45:33.499Z,17.80
2022-10-18T15:48:02.891Z,17.60
2022-10-18T15:50:39.561Z,17.40
2022-10-18T15:53:26.373Z,17.30
2022-10-18T15:55:57.051Z,17.00
2022-10-18T15:58:26.045Z,16.80
2022-10-18T16:00:54.707Z,16.80
2022-10-18T16:03:24.009Z,16.70
2022-10-18T16:05:54.390Z,16.60
2022-10-18T16:08:23.549Z,16.30
2022-10-18T16:10:51.446Z,16.20
2022-10-18T16:13:20.792Z,16.10
2022-10-18T16:15:48.866Z,16.00
2022-10-18T16:18:18.215Z,15.90
2022-10-18T16:20:46.446Z,15.80
2022-10-18T16:23:18.512Z,15.70
2022-10-18T16:25:46.701Z,15.60
2022-10-18T16:28:15.568Z,15.60
2022-10-18T16:30:46.439Z,15.70
2022-10-18T16:33:17.913Z,15.70
2022-10-18T16:35:49.460Z,15.70
2022-10-18T16:38:22.676Z,15.60
2022-10-18T16:40:50.539Z,15.50
2022-10-18T16:43:18.495Z,15.40
2022-10-18T16:45:47.907Z,15.40
2022-10-18T16:48:16.648Z,15.30
2022-10-18T16:50:44.933Z,15.20
2022-10-18T16:53:13.102Z,15.20
2022-10-18T16:55:41.590Z,15.10
2022-10-18T16:58:14.957Z,15.00
2022-10-18T17:00:43.008Z,15.00
2022-10-18T17:03:12.664Z,15.00
2022-10-18T17:05:40.955Z,15.00
2022-10-18T17:08:15.318Z,15.00
2022-10-18T17:10:44.686Z,15.00
2022-10-18T17:13:12.603Z,14.90
2022-10-18T17:15:42.088Z,14.90
2022-10-18T17:18:15.990Z,14.90
2022-10-18T17:20:44.447Z,14.80
2022-10-18T17:23:12.355Z,14.80
2022-10-18T17:25:51.470Z,14.80
2022-10-18T17:28:28.992Z,14.60
2022-10-18T17:30:56.965Z,14.50
2022-10-18T17:33:26.285Z,14.40
2022-10-18T17:35:54.172Z,14.30
2022-10-18T17:38:22.264Z,14.30
2022-10-18T17:40:52.728Z,14.30
2022-10-18T17:43:20.660Z,14.30
2022-10-18T17:45:49.201Z,14.20
2022-10-18T17:48:17.242Z,14.20
2022-10-18T17:50:46.568Z,14.20
2022-10-18T17:53:14.687Z,14.20
2022-10-18T17:55:42.679Z,14.10
2022-10-18T17:58:10.680Z,14.10
2022-10-18T18:00:38.722Z,14.00
2022-10-18T18:03:06.718Z,14.00
2022-10-18T18:05:35.113Z,14.00
2022-10-18T18:08:04.576Z,14.00
2022-10-18T18:10:33.145Z,14.00
2022-10-18T18:13:01.084Z,13.90
2022-10-18T18:15:29.077Z,13.90
2022-10-18T18:17:57.924Z,13.90
2022-10-18T18:20:26.317Z,13.90
2022-10-18T18:22:54.352Z,14.00
2022-10-18T18:25:23.596Z,14.00
2022-10-18T18:27:51.973Z,14.00
2022-10-18T18:30:21.821Z,14.00
2022-10-18T18:32:49.766Z,14.00
2022-10-18T18:35:17.686Z,13.90
2022-10-18T18:37:45.695Z,13.90
2022-10-18T18:40:13.688Z,13.90
2022-10-18T18:42:43.040Z,13.90
2022-10-18T18:45:10.993Z,13.90
2022-10-18T18:47:39.784Z,13.90
2022-10-18T18:50:08.332Z,13.90
2022-10-18T18:52:36.381Z,13.90
2022-10-18T18:55:04.600Z,13.90
2022-10-18T18:57:32.773Z,13.90
2022-10-18T19:00:02.198Z,13.80
2022-10-18T19:02:30.163Z,13.80
2022-10-18T19:04:58.062Z,13.80
2022-10-18T19:07:26.004Z,13.80
2022-10-18T19:09:53.897Z,13.80
2022-10-18T19:12:21.777Z,13.90
2022-10-18T19:14:49.718Z,13.90
2022-10-18T19:17:19.036Z,13.80
2022-10-18T19:19:47.039Z,13.80
2022-10-18T19:22:14.962Z,13.80
2022-10-18T19:24:42.859Z,13.80
2022-10-18T19:27:12.540Z,13.80
2022-10-18T19:29:41.296Z,13.80
2022-10-18T19:32:12.042Z,13.60
2022-10-18T19:34:41.631Z,13.80
2022-10-18T19:37:10.067Z,13.80
2022-10-18T19:39:38.226Z,13.80
2022-10-18T19:42:08.765Z,13.80
2022-10-18T19:44:37.254Z,13.70
2022-10-18T19:47:06.095Z,13.80
2022-10-18T19:49:34.122Z,13.70
2022-10-18T19:52:03.381Z,13.70
2022-10-18T19:54:31.254Z,13.70
2022-10-18T19:56:59.145Z,13.70
2022-10-18T19:59:27.087Z,13.60
2022-10-18T20:01:54.997Z,13.60
2022-10-18T20:04:22.861Z,13.60
2022-10-18T20:06:50.752Z,13.60
2022-10-18T20:09:21.521Z,13.50
2022-10-18T20:11:49.510Z,13.50
2022-10-18T20:14:17.428Z,13.00
2022-10-18T20:16:45.312Z,13.40
2022-10-18T20:19:13.279Z,13.40
2022-10-18T20:21:41.284Z,13.50
2022-10-18T20:24:09.315Z,13.40
2022-10-18T20:26:39.498Z,13.40
2022-10-18T20:29:08.081Z,13.40
2022-10-18T20:31:38.852Z,13.40
2022-10-18T20:34:08.116Z,13.40
2022-10-18T20:36:36.396Z,13.40
2022-10-18T20:39:04.930Z,13.40
2022-10-18T20:41:33.781Z,13.40
2022-10-18T20:44:04.000Z,13.30
2022-10-18T20:46:32.823Z,13.30
2022-10-18T20:49:00.722Z,13.30
2022-10-18T20:51:28.691Z,13.30
2022-10-18T20:53:56.971Z,13.30
2022-10-18T20:56:26.684Z,13.30
2022-10-18T20:58:55.707Z,13.30
2022-10-18T21:01:26.064Z,13.30
2022-10-18T21:03:55.725Z,13.30
2022-10-18T21:06:24.507Z,13.20
2022-10-18T21:08:53.513Z,13.20
2022-10-18T21:11:21.499Z,13.20
2022-10-18T21:13:51.121Z,13.10
2022-10-18T21:16:19.031Z,13.10
2022-10-18T21:18:48.638Z,13.10
2022-10-18T21:21:17.392Z,13.10
2022-10-18T21:23:45.626Z,13.10
2022-10-18T21:26:15.023Z,13.10
2022-10-18T21:28:43.004Z,13.10
2022-10-18T21:31:12.635Z,13.10
2022-10-18T21:33:40.895Z,13.10
2022-10-18T21:36:10.356Z,13.10
2022-10-18T21:38:38.432Z,13.10
2022-10-18T21:41:08.871Z,13.10
2022-10-18T21:43:36.830Z,13.10
2022-10-18T21:46:04.927Z,13.00
2022-10-18T21:48:32.913Z,13.00
2022-10-18T21:51:03.106Z,13.00
2022-10-18T21:53:32.371Z,13.00
2022-10-18T21:56:04.826Z,13.00
2022-10-18T21:58:32.890Z,13.00
2022-10-18T22:01:00.917Z,12.90
2022-10-18T22:03:28.889Z,12.90
2022-10-18T22:06:01.242Z,12.80
2022-10-18T22:08:29.432Z,12.80
2022-10-18T22:10:59.141Z,12.80
2022-10-18T22:13:27.453Z,12.80
2022-10-18T22:15:55.592Z,12.70
2022-10-18T22:18:23.451Z,12.70
2022-10-18T22:20:54.809Z,12.60
2022-10-18T22:23:22.683Z,12.60
2022-10-18T22:25:50.712Z,12.50
2022-10-18T22:28:20.277Z,12.50
2022-10-18T22:30:48.298Z,12.50
2022-10-18T22:33:16.127Z,12.50
2022-10-18T22:35:43.990Z,12.40
2022-10-18T22:38:11.859Z,12.30
2022-10-18T22:40:39.788Z,12.30
2022-10-18T22:43:07.655Z,12.30
2022-10-18T22:45:36.909Z,12.30
2022-10-18T22:48:05.023Z,12.20
2022-10-18T22:50:33.118Z,12.20
2022-10-18T22:53:01.049Z,12.10
2022-10-18T22:55:29.118Z,12.10
2022-10-18T22:57:57.240Z,12.20
2022-10-18T23:00:25.134Z,12.00
2022-10-18T23:02:54.387Z,11.90
2022-10-18T23:05:22.352Z,11.80
2022-10-18T23:07:50.680Z,11.80
2022-10-18T23:10:18.557Z,11.80
2022-10-18T23:12:46.816Z,11.70
2022-10-18T23:15:14.962Z,11.60
2022-10-18T23:17:42.783Z,11.60
2022-10-18T23:20:12.215Z,11.60
2022-10-18T23:22:40.101Z,11.60
2022-10-18T23:25:08.451Z,11.70
2022-10-18T23:27:36.355Z,11.70
2022-10-18T23:30:04.468Z,11.70
2022-10-18T23:32:32.921Z,11.70
2022-10-18T23:35:01.182Z,11.70
2022-10-18T23:37:30.679Z,11.70
2022-10-18T23:39:58.637Z,11.70
2022-10-18T23:42:26.497Z,11.70
2022-10-18T23:44:54.352Z,11.70
2022-10-18T23:47:22.220Z,11.70
2022-10-18T23:49:50.047Z,11.70
2022-10-18T23:52:18.036Z,11.70
2022-10-18T23:54:47.465Z,11.70
2022-10-18T23:57:15.393Z,11.70
2022-10-18T23:59:43.263Z,11.70
